createdAt,value
2024-02-08T00:00:46.889Z,4.50
2024-02-08T00:03:51.263Z,6.65
2024-02-08T00:06:53.729Z,6.13
2024-02-08T00:09:58.929Z,4.20
2024-02-08T00:13:01.378Z,4.25
2024-02-08T00:16:04.081Z,4.60
2024-02-08T00:19:06.675Z,6.38
2024-02-08T00:22:09.806Z,4.83
2024-02-08T00:25:12.176Z,6.13
2024-02-08T00:28:14.904Z,3.60
2024-02-08T00:31:17.267Z,3.67
2024-02-08T00:34:19.856Z,4.32
2024-02-08T00:37:22.446Z,4.03
2024-02-08T00:40:25.578Z,4.37
2024-02-08T00:43:28.169Z,4.32
2024-02-08T00:46:30.643Z,4.38
2024-02-08T00:49:33.044Z,3.28
2024-02-08T00:52:35.533Z,2.97
2024-02-08T00:55:38.057Z,5.97
2024-02-08T00:58:40.641Z,5.13
2024-02-08T01:01:43.167Z,4.15
2024-02-08T01:04:50.568Z,4.97
2024-02-08T01:07:53.150Z,4.10
2024-02-08T01:10:55.754Z,3.87
2024-02-08T01:13:58.910Z,3.38
2024-02-08T01:17:01.452Z,4.63
2024-02-08T01:20:08.018Z,3.67
2024-02-08T01:23:11.195Z,3.93
2024-02-08T01:26:13.914Z,4.23
2024-02-08T01:29:16.928Z,4.13
2024-02-08T01:32:21.425Z,3.40
2024-02-08T01:35:24.706Z,3.58
2024-02-08T01:38:28.790Z,5.40
2024-02-08T01:41:31.257Z,3.93
2024-02-08T01:44:33.683Z,5.05
2024-02-08T01:47:36.185Z,3.30
2024-02-08T01:50:42.022Z,3.83
2024-02-08T01:53:45.379Z,3.73
2024-02-08T01:56:51.895Z,2.80
2024-02-08T01:59:54.921Z,4.15
2024-02-08T02:03:02.185Z,3.85
2024-02-08T02:06:09.667Z,3.83
2024-02-08T02:09:13.103Z,3.00
2024-02-08T02:12:18.004Z,5.17
2024-02-08T02:15:20.655Z,4.13
2024-02-08T02:18:23.182Z,2.90
2024-02-08T02:21:26.138Z,4.93
2024-02-08T02:24:28.653Z,3.83
2024-02-08T02:27:31.197Z,4.57
2024-02-08T02:30:35.985Z,3.67
2024-02-08T02:33:38.527Z,3.50
2024-02-08T02:36:46.104Z,3.22
2024-02-08T02:39:48.575Z,2.90
2024-02-08T02:42:55.414Z,4.37
2024-02-08T02:45:57.834Z,4.05
2024-02-08T02:49:00.327Z,3.10
2024-02-08T02:52:02.988Z,2.80
2024-02-08T02:55:05.757Z,2.90
2024-02-08T02:58:08.117Z,3.70
2024-02-08T03:01:10.570Z,4.63
2024-02-08T03:04:13.040Z,4.60
2024-02-08T03:07:15.648Z,3.03
2024-02-08T03:10:21.962Z,3.23
2024-02-08T03:13:24.457Z,3.53
2024-02-08T03:16:29.589Z,2.28
2024-02-08T03:19:37.093Z,2.90
2024-02-08T03:22:40.163Z,3.63
2024-02-08T03:25:42.724Z,3.10
2024-02-08T03:28:45.610Z,2.77
2024-02-08T03:31:48.152Z,2.47
2024-02-08T03:34:53.942Z,3.25
2024-02-08T03:37:56.918Z,4.97
2024-02-08T03:40:59.570Z,4.27
2024-02-08T03:44:03.963Z,2.87
2024-02-08T03:47:10.662Z,3.88
2024-02-08T03:50:13.643Z,4.03
2024-02-08T03:53:19.209Z,3.60
2024-02-08T03:56:33.036Z,3.33
2024-02-08T03:59:39.016Z,3.43
2024-02-08T04:02:45.075Z,3.80
2024-02-08T04:05:47.448Z,3.25
2024-02-08T04:09:10.797Z,3.17
2024-02-08T04:12:32.022Z,3.47
2024-02-08T04:15:52.874Z,3.00
2024-02-08T04:19:13.933Z,3.15
2024-02-08T04:22:34.999Z,3.03
2024-02-08T04:25:56.057Z,4.47
2024-02-08T04:29:17.023Z,2.63
2024-02-08T04:32:38.256Z,3.40
2024-02-08T04:35:59.328Z,2.22
2024-02-08T04:39:20.221Z,3.45
2024-02-08T04:42:41.029Z,2.90
2024-02-08T04:46:02.059Z,3.47
2024-02-08T04:49:22.977Z,2.70
2024-02-08T04:52:43.879Z,3.42
2024-02-08T04:55:47.263Z,2.50
2024-02-08T04:59:11.032Z,2.30
2024-02-08T05:02:15.535Z,3.63
2024-02-08T05:05:20.701Z,2.83
2024-02-08T05:08:23.359Z,2.83
2024-02-08T05:11:25.786Z,3.35
2024-02-08T05:14:28.393Z,2.45
2024-02-08T05:17:31.311Z,2.50
2024-02-08T05:20:37.333Z,2.83
2024-02-08T05:23:40.237Z,2.30
2024-02-08T05:26:42.751Z,2.88
2024-02-08T05:29:47.927Z,2.05
2024-02-08T05:32:50.470Z,3.27
2024-02-08T05:35:57.959Z,2.50
2024-02-08T05:39:00.429Z,2.85
2024-02-08T05:42:03.751Z,3.75
2024-02-08T05:45:21.880Z,7.00
2024-02-08T05:48:28.899Z,6.77
2024-02-08T05:51:32.914Z,7.10
2024-02-08T05:54:38.624Z,7.35
2024-02-08T05:57:45.802Z,7.45
2024-02-08T06:00:54.615Z,7.47
2024-02-08T06:04:01.508Z,7.33
2024-02-08T06:07:07.244Z,7.40
2024-02-08T06:10:16.669Z,7.38
2024-02-08T06:13:23.878Z,9.30
2024-02-08T06:16:50.578Z,9.00
2024-02-08T06:19:53.382Z,7.47
2024-02-08T06:22:56.610Z,8.73
2024-02-08T06:26:12.159Z,13.45
2024-02-08T06:29:21.819Z,8.70
2024-02-08T06:32:38.193Z,8.07
2024-02-08T06:35:46.367Z,9.50
2024-02-08T06:38:54.902Z,12.10
2024-02-08T06:42:09.107Z,17.40
2024-02-08T06:45:46.091Z,14.52
2024-02-08T06:49:11.613Z,13.50
2024-02-08T06:52:33.215Z,9.23
2024-02-08T06:55:54.132Z,9.67
2024-02-08T06:59:15.356Z,15.13
2024-02-08T07:02:37.720Z,13.75
2024-02-08T07:06:01.158Z,13.13
2024-02-08T07:09:22.298Z,12.37
2024-02-08T07:12:50.088Z,9.03
2024-02-08T07:16:11.086Z,12.32
2024-02-08T07:19:32.047Z,8.95
2024-02-08T07:22:53.362Z,10.00
2024-02-08T07:26:14.190Z,14.77
2024-02-08T07:29:35.241Z,11.07
2024-02-08T07:32:56.336Z,12.68
2024-02-08T07:36:19.306Z,13.10
2024-02-08T07:39:31.612Z,13.65
2024-02-08T07:42:36.450Z,11.70
2024-02-08T07:45:39.113Z,13.13
2024-02-08T07:48:45.206Z,10.93
2024-02-08T07:51:52.776Z,11.82
2024-02-08T07:55:15.789Z,12.75
2024-02-08T07:58:20.175Z,11.67
2024-02-08T08:01:22.918Z,10.97
2024-02-08T08:04:53.097Z,14.60
2024-02-08T08:08:01.322Z,8.98
2024-02-08T08:11:06.868Z,9.90
2024-02-08T08:14:10.980Z,13.43
2024-02-08T08:17:16.758Z,12.27
2024-02-08T08:20:37.940Z,13.23
2024-02-08T08:24:00.433Z,14.82
2024-02-08T08:27:08.233Z,13.35
2024-02-08T08:30:12.837Z,16.90
2024-02-08T08:33:35.353Z,16.67
2024-02-08T08:36:43.335Z,8.18
2024-02-08T08:40:02.168Z,14.40
2024-02-08T08:43:11.664Z,12.48
2024-02-08T08:46:14.567Z,9.80
2024-02-08T08:49:22.528Z,13.17
2024-02-08T08:52:25.702Z,10.27
2024-02-08T08:55:28.579Z,9.13
2024-02-08T08:58:51.412Z,12.57
2024-02-08T09:01:56.829Z,15.57
2024-02-08T09:05:10.971Z,11.90
2024-02-08T09:08:23.490Z,10.35
2024-02-08T09:11:27.214Z,10.13
2024-02-08T09:14:33.804Z,11.38
2024-02-08T09:17:53.298Z,14.33
2024-02-08T09:20:58.227Z,10.60
2024-02-08T09:24:07.936Z,12.38
2024-02-08T09:27:21.008Z,8.00
2024-02-08T09:30:39.893Z,7.65
2024-02-08T09:33:47.257Z,12.27
2024-02-08T09:36:50.429Z,12.17
2024-02-08T09:40:00.627Z,8.70
2024-02-08T09:43:18.534Z,8.43
2024-02-08T09:46:35.447Z,9.60
2024-02-08T09:49:40.143Z,7.20
2024-02-08T09:53:01.486Z,11.10
2024-02-08T09:56:27.072Z,10.43
2024-02-08T10:00:05.591Z,11.15
2024-02-08T10:03:33.278Z,12.65
2024-02-08T10:06:43.257Z,13.20
2024-02-08T10:09:49.160Z,9.53
2024-02-08T10:13:07.331Z,8.05
2024-02-08T10:16:14.374Z,11.93
2024-02-08T10:19:48.843Z,23.15
2024-02-08T10:23:10.059Z,17.73
2024-02-08T10:26:22.655Z,11.80
2024-02-08T10:29:26.505Z,11.77
2024-02-08T10:32:30.636Z,11.27
2024-02-08T10:35:40.698Z,22.65
2024-02-08T10:38:59.472Z,8.93
2024-02-08T10:42:04.834Z,11.20
2024-02-08T10:45:07.781Z,17.17
2024-02-08T10:48:15.259Z,14.50
2024-02-08T10:51:27.472Z,14.10
2024-02-08T10:54:44.274Z,14.27
2024-02-08T10:58:23.642Z,14.30
2024-02-08T11:01:39.132Z,14.38
2024-02-08T11:04:42.915Z,16.27
2024-02-08T11:07:49.604Z,17.42
2024-02-08T11:11:00.473Z,12.73
2024-02-08T11:14:09.665Z,9.93
2024-02-08T11:17:21.445Z,11.85
2024-02-08T11:20:46.450Z,14.88
2024-02-08T11:23:55.402Z,11.02
2024-02-08T11:26:59.648Z,8.87
2024-02-08T11:30:02.129Z,8.57
2024-02-08T11:33:05.529Z,9.23
2024-02-08T11:36:15.951Z,9.38
2024-02-08T11:39:33.103Z,9.45
2024-02-08T11:42:38.482Z,11.50
2024-02-08T11:45:53.694Z,10.53
2024-02-08T11:49:11.091Z,11.05
2024-02-08T11:52:23.331Z,10.60
2024-02-08T11:55:26.089Z,10.30
2024-02-08T11:58:31.318Z,8.80
2024-02-08T12:01:34.799Z,13.93
2024-02-08T12:04:39.546Z,10.02
2024-02-08T12:07:46.891Z,12.48
2024-02-08T12:10:51.032Z,16.15
2024-02-08T12:13:59.194Z,10.97
2024-02-08T12:17:08.039Z,15.37
2024-02-08T12:20:11.448Z,11.68
2024-02-08T12:23:17.901Z,14.98
2024-02-08T12:26:23.666Z,13.75
2024-02-08T12:29:27.236Z,12.53
2024-02-08T12:32:32.228Z,17.97
2024-02-08T12:35:37.110Z,15.50
2024-02-08T12:38:39.792Z,9.00
2024-02-08T12:41:42.186Z,20.80
2024-02-08T12:44:50.533Z,11.20
2024-02-08T12:47:53.760Z,16.80
2024-02-08T12:50:56.769Z,9.45
2024-02-08T12:54:03.614Z,9.55
2024-02-08T12:57:14.305Z,25.15
2024-02-08T13:00:22.919Z,11.33
2024-02-08T13:03:27.706Z,12.50
2024-02-08T13:06:30.322Z,15.85
2024-02-08T13:09:38.675Z,10.38
2024-02-08T13:12:44.415Z,8.10
2024-02-08T13:15:46.931Z,10.50
2024-02-08T13:18:56.385Z,10.20
2024-02-08T13:21:59.234Z,12.80
2024-02-08T13:25:01.827Z,10.70
2024-02-08T13:28:04.542Z,10.80
2024-02-08T13:31:10.230Z,10.83
2024-02-08T13:34:15.049Z,7.60
2024-02-08T13:37:23.516Z,8.43
2024-02-08T13:40:27.154Z,12.52
2024-02-08T13:43:31.905Z,13.93
2024-02-08T13:46:37.893Z,8.87
2024-02-08T13:49:41.085Z,9.83
2024-02-08T13:52:43.862Z,17.40
2024-02-08T13:55:54.329Z,7.43
2024-02-08T13:59:01.908Z,12.27
2024-02-08T14:02:05.855Z,8.77
2024-02-08T14:05:18.314Z,8.47
2024-02-08T14:08:25.408Z,9.23
2024-02-08T14:11:28.483Z,10.27
2024-02-08T14:14:41.839Z,8.73
2024-02-08T14:17:55.439Z,12.57
2024-02-08T14:20:59.619Z,11.60
2024-02-08T14:24:03.549Z,15.50
2024-02-08T14:27:07.084Z,9.13
2024-02-08T14:30:10.081Z,8.23
2024-02-08T14:33:12.898Z,8.33
2024-02-08T14:36:15.926Z,6.77
2024-02-08T14:39:29.425Z,10.23
2024-02-08T14:42:38.514Z,6.22
2024-02-08T14:45:41.009Z,10.85
2024-02-08T14:48:43.461Z,12.73
2024-02-08T14:51:49.753Z,8.50
2024-02-08T14:55:14.217Z,8.02
2024-02-08T14:58:37.019Z,9.05
2024-02-08T15:01:40.170Z,14.40
2024-02-08T15:04:47.173Z,13.20
2024-02-08T15:07:52.750Z,11.73
2024-02-08T15:11:05.446Z,10.55
2024-02-08T15:14:08.538Z,12.80
2024-02-08T15:17:20.651Z,13.55
2024-02-08T15:20:44.988Z,13.97
2024-02-08T15:24:07.436Z,12.47
2024-02-08T15:27:19.390Z,10.73
2024-02-08T15:30:31.356Z,14.23
2024-02-08T15:33:33.785Z,10.70
2024-02-08T15:36:49.419Z,9.73
2024-02-08T15:40:10.947Z,10.37
2024-02-08T15:43:17.310Z,8.15
2024-02-08T15:46:21.707Z,10.32
2024-02-08T15:49:30.298Z,9.00
2024-02-08T15:52:35.949Z,8.73
2024-02-08T15:55:41.774Z,8.77
2024-02-08T15:58:46.557Z,11.10
2024-02-08T16:01:53.157Z,7.22
2024-02-08T16:05:13.632Z,10.18
2024-02-08T16:08:16.534Z,11.70
2024-02-08T16:11:21.779Z,9.10
2024-02-08T16:14:27.381Z,10.93
2024-02-08T16:17:32.916Z,10.38
2024-02-08T16:20:40.349Z,14.32
2024-02-08T16:23:48.398Z,13.43
2024-02-08T16:26:57.374Z,9.70
2024-02-08T16:30:09.784Z,10.82
2024-02-08T16:33:20.868Z,10.73
2024-02-08T16:36:28.248Z,9.00
2024-02-08T16:39:34.502Z,13.30
2024-02-08T16:42:37.346Z,12.17
2024-02-08T16:45:48.846Z,13.70
2024-02-08T16:48:55.497Z,10.52
2024-02-08T16:51:58.521Z,10.10
2024-02-08T16:55:02.351Z,12.73
2024-02-08T16:58:18.954Z,9.87
2024-02-08T17:01:31.041Z,8.13
2024-02-08T17:04:50.358Z,13.00
2024-02-08T17:07:53.574Z,8.68
2024-02-08T17:11:02.953Z,11.97
2024-02-08T17:14:09.719Z,11.00
2024-02-08T17:17:15.429Z,13.35
2024-02-08T17:20:38.933Z,10.23
2024-02-08T17:23:54.937Z,15.52
2024-02-08T17:27:01.168Z,17.47
2024-02-08T17:30:18.599Z,16.17
2024-02-08T17:33:21.511Z,13.73
2024-02-08T17:36:32.380Z,12.63
2024-02-08T17:39:43.741Z,17.83
2024-02-08T17:43:00.270Z,16.53
2024-02-08T17:46:06.049Z,11.80
2024-02-08T17:49:17.291Z,17.33
2024-02-08T17:52:24.841Z,15.68
2024-02-08T17:55:34.905Z,13.02
2024-02-08T17:58:37.667Z,16.43
2024-02-08T18:01:56.582Z,17.67
2024-02-08T18:05:02.546Z,15.65
2024-02-08T18:08:10.465Z,14.20
2024-02-08T18:11:17.523Z,18.17
2024-02-08T18:14:20.163Z,11.33
2024-02-08T18:17:26.417Z,9.87
2024-02-08T18:20:34.377Z,11.45
2024-02-08T18:23:37.029Z,13.27
2024-02-08T18:26:41.770Z,15.05
2024-02-08T18:29:46.361Z,11.07
2024-02-08T18:32:49.339Z,15.20
2024-02-08T18:35:54.499Z,13.32
2024-02-08T18:38:58.654Z,18.25
2024-02-08T18:42:03.295Z,10.05
2024-02-08T18:45:08.552Z,9.07
2024-02-08T18:48:12.831Z,12.10
2024-02-08T18:51:17.298Z,13.20
2024-02-08T18:54:30.102Z,14.57
2024-02-08T18:57:32.689Z,12.10
2024-02-08T19:00:35.121Z,14.20
2024-02-08T19:03:38.520Z,13.17
2024-02-08T19:06:41.049Z,15.88
2024-02-08T19:09:44.789Z,13.80
2024-02-08T19:12:53.043Z,14.98
2024-02-08T19:16:01.782Z,13.73
2024-02-08T19:19:04.946Z,12.27
2024-02-08T19:22:14.701Z,8.93
2024-02-08T19:25:22.887Z,14.43
2024-02-08T19:28:26.006Z,10.48
2024-02-08T19:31:29.233Z,11.17
2024-02-08T19:34:32.107Z,10.77
2024-02-08T19:37:35.019Z,9.88
2024-02-08T19:40:37.836Z,11.27
2024-02-08T19:43:40.752Z,12.38
2024-02-08T19:46:53.620Z,12.83
2024-02-08T19:50:07.148Z,10.77
2024-02-08T19:53:11.123Z,10.98
2024-02-08T19:56:19.930Z,9.50
2024-02-08T19:59:28.419Z,11.18
2024-02-08T20:02:35.745Z,8.70
2024-02-08T20:05:38.757Z,11.17
2024-02-08T20:08:46.205Z,10.52
2024-02-08T20:11:53.339Z,8.52
2024-02-08T20:14:58.164Z,9.85
2024-02-08T20:18:02.582Z,9.80
2024-02-08T20:21:05.483Z,8.37
2024-02-08T20:24:13.060Z,11.13
2024-02-08T20:27:16.188Z,15.55
2024-02-08T20:30:22.740Z,10.30
2024-02-08T20:33:32.346Z,12.07
2024-02-08T20:36:34.914Z,10.70
2024-02-08T20:39:37.388Z,11.05
2024-02-08T20:42:39.796Z,9.70
2024-02-08T20:45:42.538Z,6.50
2024-02-08T20:48:45.069Z,8.40
2024-02-08T20:51:53.728Z,7.67
2024-02-08T20:54:56.289Z,7.80
2024-02-08T20:57:58.817Z,8.57
2024-02-08T21:01:03.139Z,6.35
2024-02-08T21:04:09.321Z,11.33
2024-02-08T21:07:13.465Z,9.07
2024-02-08T21:10:23.757Z,8.45
2024-02-08T21:13:26.876Z,6.35
2024-02-08T21:16:31.164Z,10.20
2024-02-08T21:19:37.872Z,6.67
2024-02-08T21:22:41.261Z,7.10
2024-02-08T21:25:43.828Z,6.28
2024-02-08T21:28:52.224Z,5.35
2024-02-08T21:31:56.838Z,6.53
2024-02-08T21:34:59.471Z,7.47
2024-02-08T21:38:06.107Z,8.33
2024-02-08T21:41:08.621Z,9.48
2024-02-08T21:44:11.599Z,6.00
2024-02-08T21:47:17.353Z,6.72
2024-02-08T21:50:20.135Z,8.07
2024-02-08T21:53:22.515Z,6.47
2024-02-08T21:56:24.866Z,9.30
2024-02-08T21:59:29.567Z,5.55
2024-02-08T22:02:34.202Z,5.57
2024-02-08T22:05:36.800Z,5.53
2024-02-08T22:08:39.215Z,6.17
2024-02-08T22:11:48.967Z,9.40
2024-02-08T22:14:51.520Z,5.70
2024-02-08T22:17:53.978Z,9.93
2024-02-08T22:20:56.433Z,5.87
2024-02-08T22:23:58.822Z,6.87
2024-02-08T22:27:02.125Z,5.82
2024-02-08T22:30:11.279Z,6.97
2024-02-08T22:33:15.291Z,5.35
2024-02-08T22:36:17.802Z,6.07
2024-02-08T22:39:20.252Z,5.77
2024-02-08T22:42:24.366Z,4.78
2024-02-08T22:45:26.795Z,6.60
2024-02-08T22:48:29.152Z,4.68
2024-02-08T22:51:33.693Z,5.10
2024-02-08T22:54:36.038Z,5.20
2024-02-08T22:57:40.124Z,5.75
2024-02-08T23:00:51.692Z,5.40
2024-02-08T23:03:54.370Z,5.93
2024-02-08T23:06:57.003Z,5.40
2024-02-08T23:10:01.097Z,5.33
2024-02-08T23:13:04.565Z,4.65
2024-02-08T23:16:09.378Z,6.65
2024-02-08T23:19:13.549Z,4.60
2024-02-08T23:22:15.988Z,6.53
2024-02-08T23:25:18.488Z,4.87
2024-02-08T23:28:21.645Z,6.05
2024-02-08T23:31:29.165Z,4.50
2024-02-08T23:34:31.806Z,7.45
2024-02-08T23:37:34.348Z,6.70
2024-02-08T23:40:36.883Z,4.30
2024-02-08T23:43:39.526Z,4.05
2024-02-08T23:46:43.380Z,4.70
2024-02-08T23:49:45.894Z,5.90
2024-02-08T23:52:51.253Z,6.20
2024-02-08T23:55:56.120Z,4.80
2024-02-08T23:58:59.180Z,5.63
